Time;durP1;ratioP1;P1;durP2;ratioP2;P2;SDS_P1;SDS_P2;PMS_P1;PMS_P2;Temp;Humidity;BMP_temperature;BMP_pressure;BME280_temperature;BME280_humidity;BME280_pressure;Samples;Min_cycle;Max_cycle;Signal;HPM_P1;HPM_P2
2023/03/22 00:01:45;;;;;;;9.90;6.93;;;;;;;9.50;87.97;100344.88;4969821;28;20197;-83
2023/03/22 00:04:13;;;;;;;8.07;6.07;;;;;;;9.48;87.44;100342.34;4976944;28;20209;-83
2023/03/22 00:06:39;;;;;;;8.00;6.33;;;;;;;9.46;87.90;100351.38;4976792;28;20211;-82
2023/03/22 00:09:06;;;;;;;11.73;6.90;;;;;;;9.44;87.79;100342.63;4968584;28;20314;-83
2023/03/22 00:11:32;;;;;;;9.27;6.63;;;;;;;9.43;87.89;100340.91;4971707;28;20595;-83
2023/03/22 00:13:59;;;;;;;11.73;7.33;;;;;;;9.40;87.70;100348.13;4963534;28;20222;-83
2023/03/22 00:16:26;;;;;;;14.57;9.70;;;;;;;9.39;87.58;100338.44;4974153;28;20634;-83
2023/03/22 00:18:52;;;;;;;13.70;8.53;;;;;;;9.37;87.56;100339.50;4974188;28;20211;-83
2023/03/22 00:21:20;;;;;;;9.33;6.77;;;;;;;9.35;88.09;100342.25;4966487;28;20208;-83
2023/03/22 00:23:47;;;;;;;8.40;7.17;;;;;;;9.34;87.94;100340.53;4980104;28;20216;-83
2023/03/22 00:26:14;;;;;;;8.30;7.40;;;;;;;9.31;88.10;100340.75;4971854;28;20207;-83
2023/03/22 00:28:41;;;;;;;10.77;8.47;;;;;;;9.29;88.09;100339.13;4977693;28;20263;-83
2023/03/22 00:31:08;;;;;;;10.23;8.53;;;;;;;9.26;88.18;100339.31;4965729;28;20232;-83
2023/03/22 00:33:35;;;;;;;10.13;8.50;;;;;;;9.24;87.95;100341.22;4967279;28;20575;-83
2023/03/22 00:36:04;;;;;;;9.53;8.53;;;;;;;9.20;88.49;100337.03;4963211;28;20282;-83
2023/03/22 00:38:35;;;;;;;11.60;8.80;;;;;;;9.14;88.71;100338.28;4976868;28;20255;-83
2023/03/22 00:41:10;;;;;;;10.97;9.00;;;;;;;9.09;88.30;100336.88;4974774;28;20311;-83
2023/03/22 00:43:37;;;;;;;11.10;9.47;;;;;;;9.04;89.04;100329.19;4974088;28;20654;-83
2023/03/22 00:46:03;;;;;;;13.60;9.93;;;;;;;9.02;88.82;100333.72;4979253;28;20234;-83
2023/03/22 00:48:30;;;;;;;10.80;9.57;;;;;;;8.97;89.22;100326.03;4976542;28;20224;-83
2023/03/22 00:50:57;;;;;;;12.07;9.60;;;;;;;8.95;88.80;100322.66;4970572;28;20855;-83
2023/03/22 00:53:23;;;;;;;11.87;9.37;;;;;;;8.90;89.55;100324.72;4971208;28;20220;-83
2023/03/22 00:55:51;;;;;;;12.37;9.37;;;;;;;8.86;89.29;100322.34;4977749;28;20210;-82
2023/03/22 00:58:18;;;;;;;12.10;9.13;;;;;;;8.82;89.21;100320.81;4964008;28;20207;-83
2023/03/22 01:00:44;;;;;;;12.07;9.30;;;;;;;8.79;89.57;100316.53;4969288;28;20644;-83
2023/03/22 01:03:14;;;;;;;12.57;9.37;;;;;;;8.76;90.22;100315.91;4960873;28;20224;-83
2023/03/22 01:05:41;;;;;;;12.87;10.20;;;;;;;8.73;90.01;100316.09;4974340;28;20218;-82
2023/03/22 01:08:08;;;;;;;12.97;10.13;;;;;;;8.70;90.02;100302.03;4972238;28;20231;-83
2023/03/22 01:10:34;;;;;;;10.73;9.27;;;;;;;8.69;89.94;100297.69;4966050;28;20221;-83
2023/03/22 01:13:02;;;;;;;15.77;9.53;;;;;;;8.67;91.00;100299.56;4968484;28;20216;-83
2023/03/22 01:15:29;;;;;;;12.07;9.50;;;;;;;8.65;91.32;100297.97;4973036;28;20215;-83
2023/03/22 01:17:56;;;;;;;16.70;11.13;;;;;;;8.66;90.88;100297.00;4973842;28;20295;-83
2023/03/22 01:20:22;;;;;;;14.87;10.63;;;;;;;8.64;90.95;100296.25;4970356;28;20243;-83
2023/03/22 01:22:49;;;;;;;11.27;9.37;;;;;;;8.63;90.80;100291.88;4972069;28;20231;-83
2023/03/22 01:25:16;;;;;;;13.73;9.20;;;;;;;8.62;91.10;100282.22;4965350;28;20286;-83
2023/03/22 01:27:42;;;;;;;13.30;9.03;;;;;;;8.62;91.75;100280.41;4974063;28;20217;-83
2023/03/22 01:30:11;;;;;;;12.73;9.87;;;;;;;8.62;91.93;100284.88;4966650;28;20813;-83
2023/03/22 01:32:38;;;;;;;15.27;10.90;;;;;;;8.65;91.91;100290.00;4966122;28;20584;-83
2023/03/22 01:35:06;;;;;;;15.97;10.43;;;;;;;8.64;91.76;100280.31;4968242;28;20207;-83
2023/03/22 01:37:33;;;;;;;12.70;11.13;;;;;;;8.62;92.21;100287.53;4977829;28;20203;-83
2023/03/22 01:39:59;;;;;;;13.93;10.47;;;;;;;8.61;91.55;100284.00;4971537;28;20239;-82
2023/03/22 01:42:27;;;;;;;18.67;11.90;;;;;;;8.61;92.33;100285.81;4963156;28;20212;-83
2023/03/22 01:45:30;;;;;;;14.93;11.43;;;;;;;8.59;91.57;100275.31;4978216;28;20681;-83
2023/03/22 01:48:01;;;;;;;16.70;11.30;;;;;;;8.58;92.26;100275.41;4964433;28;20585;-83
2023/03/22 01:50:30;;;;;;;15.97;11.43;;;;;;;8.57;92.48;100279.00;4968678;28;20637;-83
2023/03/22 01:52:57;;;;;;;15.80;11.33;;;;;;;8.57;92.40;100279.00;4976076;28;20724;-83
2023/03/22 01:55:26;;;;;;;17.73;10.80;;;;;;;8.56;92.77;100272.84;4972267;28;20201;-82
2023/03/22 01:57:54;;;;;;;14.97;11.83;;;;;;;8.55;92.67;100268.47;4977448;28;20207;-82
2023/03/22 02:00:21;;;;;;;14.63;10.80;;;;;;;8.56;93.20;100264.03;4977973;28;20317;-83
2023/03/22 02:02:50;;;;;;;15.80;11.87;;;;;;;8.58;92.91;100265.66;4972506;28;20251;-83
2023/03/22 02:05:21;;;;;;;14.20;11.90;;;;;;;8.59;93.67;100255.88;4975158;28;20208;-83
2023/03/22 02:07:49;;;;;;;17.17;12.00;;;;;;;8.60;93.63;100252.25;4982358;28;20286;-83
2023/03/22 02:10:19;;;;;;;21.17;13.00;;;;;;;8.58;94.14;100256.81;4969499;28;20255;-83
2023/03/22 02:12:58;;;;;;;16.70;12.33;;;;;;;8.59;94.38;100254.06;4971522;28;20204;-83
2023/03/22 02:15:33;;;;;;;19.60;13.57;;;;;;;8.60;94.15;100252.25;4971839;28;20248;-83
2023/03/22 02:18:17;;;;;;;15.90;12.60;;;;;;;8.60;94.43;100252.25;4962624;28;20715;-83
2023/03/22 02:21:28;;;;;;;17.77;11.83;;;;;;;8.63;94.44;100241.44;4963092;28;20225;-83
2023/03/22 02:24:23;;;;;;;15.73;11.63;;;;;;;8.64;94.78;100248.47;4964702;28;20216;-83
2023/03/22 02:27:14;;;;;;;16.57;11.90;;;;;;;8.65;94.65;100245.72;4976466;28;20573;-83
2023/03/22 02:29:45;;;;;;;15.07;11.47;;;;;;;8.67;94.76;100243.81;4972335;28;20236;-83
2023/03/22 02:32:48;;;;;;;18.07;12.33;;;;;;;8.72;94.27;100245.34;4974947;28;20209;-83
2023/03/22 02:35:41;;;;;;;14.83;11.47;;;;;;;8.74;94.63;100239.00;4973377;28;20213;-83
2023/03/22 02:38:41;;;;;;;17.67;11.70;;;;;;;8.77;94.83;100240.63;4963744;28;20222;-83
2023/03/22 02:41:14;;;;;;;18.13;12.70;;;;;;;8.78;94.89;100235.19;4973379;28;20771;-82
2023/03/22 02:43:51;;;;;;;15.63;12.80;;;;;;;8.78;95.23;100235.19;4967704;28;20209;-83
2023/03/22 02:46:22;;;;;;;18.73;13.30;;;;;;;8.80;95.13;100233.28;4976108;28;20215;-83
2023/03/22 02:48:56;;;;;;;20.63;13.60;;;;;;;8.79;95.40;100228.91;4974420;28;20799;-83
2023/03/22 02:51:27;;;;;;;17.33;12.70;;;;;;;8.79;95.12;100231.56;4966243;28;20598;-83
2023/03/22 02:53:59;;;;;;;17.27;13.53;;;;;;;8.79;95.33;100228.91;4971411;28;20212;-83
2023/03/22 02:56:31;;;;;;;20.67;14.50;;;;;;;8.79;95.48;100228.91;4973770;28;20211;-83
2023/03/22 02:59:01;;;;;;;19.50;14.10;;;;;;;8.78;95.27;100231.69;4966743;28;20200;-83
2023/03/22 03:01:30;;;;;;;18.10;13.80;;;;;;;8.77;95.42;100232.66;4974455;28;20204;-83
2023/03/22 03:04:01;;;;;;;15.70;12.50;;;;;;;8.77;95.20;100230.84;4968658;28;20227;-83
2023/03/22 03:06:29;;;;;;;15.57;12.50;;;;;;;8.78;95.64;100234.34;4976926;28;21105;-83
2023/03/22 03:09:01;;;;;;;19.87;13.20;;;;;;;8.80;95.69;100230.63;4971013;28;20674;-83
2023/03/22 03:11:29;;;;;;;17.93;12.27;;;;;;;8.79;95.81;100228.06;4978359;28;20216;-82
2023/03/22 03:13:56;;;;;;;16.07;12.13;;;;;;;8.78;94.96;100232.53;4972916;28;20265;-83
2023/03/22 03:16:27;;;;;;;15.07;11.40;;;;;;;8.82;95.58;100238.50;4969818;28;20219;-83
2023/03/22 03:18:59;;;;;;;16.30;11.90;;;;;;;8.84;95.24;100229.50;4972169;28;20677;-83
2023/03/22 03:21:33;;;;;;;18.33;12.30;;;;;;;8.86;95.15;100224.09;4969616;28;20196;-82
2023/03/22 03:24:13;;;;;;;19.07;12.47;;;;;;;8.87;95.51;100217.84;4976744;28;21310;-83
2023/03/22 03:26:48;;;;;;;19.07;13.37;;;;;;;8.88;95.75;100219.53;4975345;28;20245;-83
2023/03/22 03:29:22;;;;;;;18.63;13.47;;;;;;;8.90;95.16;100220.31;4969194;28;20224;-83
2023/03/22 03:31:55;;;;;;;18.73;12.77;;;;;;;8.89;95.04;100222.09;4972637;28;20666;-83
2023/03/22 03:34:26;;;;;;;17.10;13.53;;;;;;;8.88;95.50;100228.38;4973770;28;20219;-82
2023/03/22 03:36:56;;;;;;;16.27;11.97;;;;;;;8.89;95.02;100224.75;4973290;28;20209;-83
2023/03/22 03:39:26;;;;;;;16.83;13.17;;;;;;;8.89;95.38;100216.78;4974883;28;20251;-82
2023/03/22 03:41:56;;;;;;;19.47;13.17;;;;;;;8.88;95.15;100209.78;4967839;28;20228;-83
2023/03/22 03:44:23;;;;;;;18.83;12.90;;;;;;;8.90;95.40;100213.19;4966662;28;20906;-83
2023/03/22 03:46:51;;;;;;;19.07;12.90;;;;;;;8.89;95.49;100211.47;4969442;28;20205;-83
2023/03/22 03:49:20;;;;;;;20.63;13.07;;;;;;;8.89;95.04;100215.94;4972007;28;20756;-83
2023/03/22 03:51:49;;;;;;;21.10;14.20;;;;;;;8.90;95.56;100209.69;4976662;28;20550;-82
2023/03/22 03:54:16;;;;;;;15.20;12.00;;;;;;;8.88;94.88;100200.94;4972110;28;20216;-82
2023/03/22 03:56:42;;;;;;;18.27;13.03;;;;;;;8.87;94.88;100200.09;4970692;28;20216;-82
2023/03/22 03:59:11;;;;;;;18.37;13.67;;;;;;;8.88;95.01;100192.97;4967637;28;20577;-83
2023/03/22 04:01:38;;;;;;;16.00;12.67;;;;;;;8.86;95.26;100197.53;4964669;28;20296;-83
2023/03/22 04:04:05;;;;;;;20.07;13.43;;;;;;;8.86;95.34;100194.88;4962955;28;20264;-82
2023/03/22 04:06:33;;;;;;;18.83;13.33;;;;;;;8.84;95.15;100202.94;4974015;28;20204;-83
2023/03/22 04:09:00;;;;;;;20.10;13.30;;;;;;;8.83;95.31;100193.28;4970283;28;20209;-83
2023/03/22 04:11:27;;;;;;;19.73;13.67;;;;;;;8.84;94.79;100194.13;4971217;28;20302;-82
2023/03/22 04:13:53;;;;;;;19.27;13.80;;;;;;;8.82;94.67;100191.56;4970153;28;20227;-83
2023/03/22 04:16:23;;;;;;;16.87;13.37;;;;;;;8.82;95.50;100191.56;4972304;28;20223;-82
2023/03/22 04:18:50;;;;;;;16.27;13.07;;;;;;;8.83;95.41;100190.63;4969591;28;20266;-82
2023/03/22 04:21:17;;;;;;;19.80;14.07;;;;;;;8.83;95.40;100187.97;4976064;28;20232;-82
2023/03/22 04:23:45;;;;;;;18.33;13.63;;;;;;;8.83;95.67;100185.31;4967051;28;20566;-83
2023/03/22 04:26:11;;;;;;;16.87;13.43;;;;;;;8.84;95.37;100184.34;4976108;28;20230;-82
2023/03/22 04:28:38;;;;;;;18.40;13.60;;;;;;;8.86;96.06;100177.16;4970421;28;20213;-82
2023/03/22 04:31:05;;;;;;;19.63;13.87;;;;;;;8.89;95.72;100174.31;4974383;28;20242;-82
2023/03/22 04:33:38;;;;;;;20.07;14.47;;;;;;;8.89;96.04;100181.41;4966854;28;20270;-82
2023/03/22 04:36:05;;;;;;;19.97;13.77;;;;;;;8.88;96.03;100175.25;4972196;28;20303;-81
2023/03/22 04:38:32;;;;;;;19.63;13.37;;;;;;;8.88;96.04;100177.06;4971849;28;20220;-82
2023/03/22 04:40:59;;;;;;;22.00;14.40;;;;;;;8.89;95.51;100176.09;4975807;28;20224;-82
2023/03/22 04:43:25;;;;;;;20.30;14.67;;;;;;;8.90;96.08;100165.38;4973287;28;20240;-83
2023/03/22 04:45:53;;;;;;;18.97;13.13;;;;;;;8.90;95.66;100165.38;4976731;28;20564;-82
2023/03/22 04:48:21;;;;;;;18.00;13.27;;;;;;;8.90;95.48;100169.84;4970034;28;20240;-82
2023/03/22 04:50:52;;;;;;;16.03;12.83;;;;;;;8.91;95.84;100166.25;4974983;28;20239;-82
2023/03/22 04:53:18;;;;;;;19.67;13.73;;;;;;;8.91;95.88;100166.25;4966367;28;20214;-82
2023/03/22 04:55:45;;;;;;;18.53;13.33;;;;;;;8.93;96.13;100165.19;4971302;28;20200;-82
2023/03/22 04:58:11;;;;;;;17.57;12.43;;;;;;;8.95;96.43;100165.94;4970679;28;20224;-82
2023/03/22 05:00:40;;;;;;;20.37;13.03;;;;;;;8.99;96.04;100169.22;4973011;28;20224;-82
2023/03/22 05:03:07;;;;;;;16.77;12.57;;;;;;;9.04;96.03;100167.16;4971671;28;20238;-82
2023/03/22 05:05:33;;;;;;;20.63;13.93;;;;;;;9.03;95.19;100171.59;4970965;28;20208;-82
2023/03/22 05:08:01;;;;;;;18.00;10.93;;;;;;;9.08;95.36;100171.31;4973671;28;20211;-82
2023/03/22 05:10:28;;;;;;;20.03;13.23;;;;;;;9.10;95.14;100174.72;4972220;28;20232;-82
2023/03/22 05:12:54;;;;;;;20.33;12.73;;;;;;;9.14;94.55;100170.91;4970616;28;20220;-82
2023/03/22 05:15:21;;;;;;;18.87;12.73;;;;;;;9.14;94.60;100168.25;4975278;28;20778;-82
2023/03/22 05:17:51;;;;;;;18.03;11.83;;;;;;;9.18;94.50;100167.09;4967879;28;20212;-82
2023/03/22 05:20:18;;;;;;;15.60;12.13;;;;;;;9.21;94.05;100163.38;4977295;28;20248;-82
2023/03/22 05:22:44;;;;;;;15.03;12.23;;;;;;;9.25;93.98;100160.44;4968446;28;20209;-83
2023/03/22 05:25:12;;;;;;;16.40;12.00;;;;;;;9.29;93.63;100161.94;4974438;28;20222;-82
2023/03/22 05:27:39;;;;;;;18.77;12.37;;;;;;;9.30;93.16;100163.66;4968985;28;20207;-83
2023/03/22 05:30:07;;;;;;;17.17;12.00;;;;;;;9.32;92.99;100158.22;4975549;28;20244;-82
2023/03/22 05:32:36;;;;;;;17.80;11.67;;;;;;;9.36;92.31;100162.38;4968234;28;20220;-82
2023/03/22 05:35:03;;;;;;;18.90;12.70;;;;;;;9.37;92.21;100166.75;4975030;28;20214;-82
2023/03/22 05:37:30;;;;;;;16.70;12.13;;;;;;;9.40;91.40;100171.84;4973763;28;20209;-82
2023/03/22 05:39:57;;;;;;;16.03;11.50;;;;;;;9.38;91.67;100171.97;4973721;28;20235;-82
2023/03/22 05:42:24;;;;;;;14.77;10.53;;;;;;;9.42;91.14;100169.97;4974804;28;20209;-82
2023/03/22 05:44:51;;;;;;;14.20;10.67;;;;;;;9.44;91.62;100170.72;4968836;28;20216;-83
2023/03/22 05:47:17;;;;;;;16.20;10.37;;;;;;;9.47;91.04;100165.19;4975215;28;20200;-82
2023/03/22 05:49:44;;;;;;;14.63;10.73;;;;;;;9.51;90.93;100160.50;4969364;28;20228;-82
2023/03/22 05:52:11;;;;;;;17.60;11.50;;;;;;;9.51;90.85;100155.19;4972102;28;20281;-82
2023/03/22 05:54:37;;;;;;;15.70;11.27;;;;;;;9.53;91.07;100158.59;4972114;28;20220;-82
2023/03/22 05:57:04;;;;;;;17.50;11.87;;;;;;;9.54;90.63;100150.53;4969358;28;20207;-82
2023/03/22 05:59:32;;;;;;;14.07;11.83;;;;;;;9.58;90.32;100157.34;4978887;28;20228;-82
2023/03/22 06:01:58;;;;;;;16.57;11.63;;;;;;;9.60;90.98;100152.78;4981283;28;20215;-82
2023/03/22 06:04:24;;;;;;;15.53;11.23;;;;;;;9.62;90.21;100144.72;4974875;28;20552;-82
2023/03/22 06:06:52;;;;;;;16.03;11.60;;;;;;;9.65;90.47;100144.50;4976863;28;20207;-83
2023/03/22 06:09:19;;;;;;;13.93;10.73;;;;;;;9.66;90.29;100144.41;4981010;28;20208;-82
2023/03/22 06:11:45;;;;;;;14.57;11.70;;;;;;;9.68;90.11;100141.63;4979191;28;20234;-82
2023/03/22 06:14:12;;;;;;;15.30;12.00;;;;;;;9.68;89.81;100141.63;4976711;28;20685;-82
2023/03/22 06:16:39;;;;;;;16.67;11.63;;;;;;;9.71;90.32;100136.94;4975286;28;20307;-82
2023/03/22 06:19:06;;;;;;;15.10;10.97;;;;;;;9.75;90.11;100134.94;4972484;28;20216;-83
2023/03/22 06:21:32;;;;;;;17.43;11.93;;;;;;;9.77;89.33;100132.19;4979034;28;20212;-83
2023/03/22 06:23:59;;;;;;;17.70;12.07;;;;;;;9.80;89.75;100145.28;4980761;28;20215;-83
2023/03/22 06:26:25;;;;;;;17.03;11.33;;;;;;;9.82;89.47;100138.03;4979506;28;20211;-83
2023/03/22 06:28:52;;;;;;;16.00;11.67;;;;;;;9.85;89.46;100140.50;4973667;28;20675;-83
2023/03/22 06:31:18;;;;;;;14.90;10.87;;;;;;;9.85;89.12;100138.69;4968027;28;20872;-81
2023/03/22 06:33:46;;;;;;;14.90;11.97;;;;;;;9.85;89.47;100140.50;4968427;28;20583;-81
2023/03/22 06:36:12;;;;;;;14.30;11.67;;;;;;;9.87;88.93;100143.88;4978805;28;20856;-81
2023/03/22 06:38:39;;;;;;;18.10;11.63;;;;;;;9.88;88.98;100134.94;4973008;28;20602;-80
2023/03/22 06:41:05;;;;;;;16.63;13.30;;;;;;;9.89;88.95;100144.63;4965848;28;20229;-80
2023/03/22 06:43:32;;;;;;;17.80;12.60;;;;;;;9.90;89.21;100143.66;4973907;28;20710;-80
2023/03/22 06:45:58;;;;;;;17.93;12.57;;;;;;;9.89;88.72;100145.47;4976631;28;20215;-80
2023/03/22 06:48:25;;;;;;;15.70;12.43;;;;;;;9.90;89.26;100141.00;4983760;28;20204;-80
2023/03/22 06:50:53;;;;;;;16.10;12.20;;;;;;;9.92;89.09;100139.94;4980056;28;20237;-81
2023/03/22 06:53:19;;;;;;;17.37;12.23;;;;;;;9.96;89.35;100145.91;4976046;28;20212;-80
2023/03/22 06:55:46;;;;;;;17.63;11.37;;;;;;;9.98;88.88;100133.38;4977427;28;20227;-81
2023/03/22 06:58:12;;;;;;;15.37;11.87;;;;;;;10.01;89.59;100133.16;4969880;28;20707;-80
2023/03/22 07:00:40;;;;;;;19.83;13.40;;;;;;;10.04;89.32;100132.91;4979345;28;20224;-81
2023/03/22 07:03:06;;;;;;;18.37;12.97;;;;;;;10.08;89.06;100134.41;4975884;28;20229;-79
2023/03/22 07:05:33;;;;;;;17.27;11.73;;;;;;;10.13;89.47;100126.97;4976194;28;20587;-80
2023/03/22 07:08:00;;;;;;;19.03;12.47;;;;;;;10.13;89.49;100124.31;4974742;28;20670;-81
2023/03/22 07:10:28;;;;;;;16.83;12.97;;;;;;;10.16;89.63;100126.78;4972135;28;20241;-81
2023/03/22 07:12:55;;;;;;;16.57;11.50;;;;;;;10.21;89.46;100126.50;4974001;28;20209;-82
2023/03/22 07:15:23;;;;;;;19.57;12.33;;;;;;;10.24;89.61;100120.94;4970529;28;20212;-81
2023/03/22 07:17:50;;;;;;;15.27;11.20;;;;;;;10.28;89.88;100117.09;4973333;28;20232;-81
2023/03/22 07:20:17;;;;;;;20.47;13.60;;;;;;;10.33;89.51;100121.16;4973909;28;20269;-81
2023/03/22 07:22:44;;;;;;;16.23;11.50;;;;;;;10.38;89.71;100121.69;4969553;28;20224;-80
2023/03/22 07:25:12;;;;;;;16.83;12.10;;;;;;;10.44;90.01;100115.91;4976273;28;20587;-80
2023/03/22 07:27:39;;;;;;;16.47;12.20;;;;;;;10.49;89.80;100117.38;4969291;28;20211;-80
2023/03/22 07:30:07;;;;;;;15.30;12.47;;;;;;;10.54;89.51;100115.25;4976150;28;20239;-80
2023/03/22 07:32:33;;;;;;;16.10;12.10;;;;;;;10.56;89.26;100116.00;4968358;28;20208;-81
2023/03/22 07:35:00;;;;;;;16.10;11.40;;;;;;;10.61;89.11;100116.50;4969776;28;20626;-80
2023/03/22 07:37:26;;;;;;;18.37;12.33;;;;;;;10.65;88.96;100115.31;4973622;28;20601;-80
2023/03/22 07:39:53;;;;;;;14.43;11.30;;;;;;;10.75;89.07;100119.88;4972110;28;20730;-81
2023/03/22 07:42:21;;;;;;;14.60;11.37;;;;;;;10.88;89.12;100124.31;4971053;28;20643;-81
2023/03/22 07:44:48;;;;;;;11.93;8.97;;;;;;;11.02;89.15;100113.50;4970599;28;20223;-80
2023/03/22 07:47:15;;;;;;;13.70;10.43;;;;;;;11.21;88.68;100118.31;4974495;28;20677;-80
2023/03/22 07:49:41;;;;;;;16.30;11.50;;;;;;;11.35;88.37;100110.13;4969451;28;20229;-81
2023/03/22 07:52:08;;;;;;;13.70;10.20;;;;;;;11.47;87.86;100114.53;4977313;28;20705;-81
2023/03/22 07:54:34;;;;;;;10.40;8.40;;;;;;;11.60;86.93;100111.81;4970334;28;20615;-80
2023/03/22 07:57:01;;;;;;;11.20;7.50;;;;;;;11.65;85.39;100099.81;4972633;28;20266;-81
2023/03/22 07:59:30;;;;;;;9.53;6.87;;;;;;;11.74;83.10;100093.78;4970401;28;20580;-81
2023/03/22 08:01:56;;;;;;;12.63;7.90;;;;;;;11.79;82.45;100101.47;4978571;28;20275;-81
2023/03/22 08:04:23;;;;;;;12.50;8.70;;;;;;;11.81;81.53;100100.38;4967576;28;20646;-82
2023/03/22 08:06:50;;;;;;;9.93;7.80;;;;;;;11.88;80.98;100094.56;4973923;28;20208;-81
2023/03/22 08:09:17;;;;;;;12.90;7.70;;;;;;;11.97;80.37;100086.69;4977110;28;20274;-82
2023/03/22 08:11:43;;;;;;;11.53;6.83;;;;;;;12.08;78.36;100096.53;4972846;28;20235;-81
2023/03/22 08:14:10;;;;;;;11.00;7.57;;;;;;;12.11;78.36;100099.81;4972633;28;20215;-81
2023/03/22 08:16:40;;;;;;;9.93;7.20;;;;;;;12.19;77.79;100093.84;4971276;28;20214;-81
2023/03/22 08:19:06;;;;;;;10.87;7.20;;;;;;;12.22;77.48;100096.28;4968669;28;20305;-81
2023/03/22 08:21:33;;;;;;;12.30;7.63;;;;;;;12.28;77.23;100097.63;4975188;28;20207;-80
2023/03/22 08:23:59;;;;;;;10.87;7.90;;;;;;;12.33;76.63;100095.44;4971645;28;20208;-81
2023/03/22 08:26:26;;;;;;;11.00;7.87;;;;;;;12.40;76.58;100085.97;4967660;28;20227;-81
2023/03/22 08:28:53;;;;;;;10.80;7.17;;;;;;;12.43;74.89;100094.59;4970240;28;20212;-81
2023/03/22 08:31:19;;;;;;;10.73;7.17;;;;;;;12.42;75.49;100095.56;4967801;28;20228;-81
2023/03/22 08:33:48;;;;;;;12.23;7.27;;;;;;;12.41;75.38;100085.84;4974141;28;20202;-82
2023/03/22 08:36:16;;;;;;;11.10;6.77;;;;;;;12.39;75.42;100074.44;4976752;28;20832;-81
2023/03/22 08:38:44;;;;;;;9.53;6.77;;;;;;;12.43;74.82;100067.88;4966545;28;20208;-81
2023/03/22 08:41:10;;;;;;;10.10;7.20;;;;;;;12.48;73.86;100076.38;4976323;28;20220;-81
2023/03/22 08:43:37;;;;;;;11.10;6.87;;;;;;;12.45;73.85;100071.28;4973909;28;20212;-81
2023/03/22 08:46:04;;;;;;;9.93;7.20;;;;;;;12.50;73.63;100068.25;4974604;28;20204;-81
2023/03/22 08:48:30;;;;;;;10.40;6.80;;;;;;;12.48;73.43;100065.69;4971028;28;20207;-81
2023/03/22 08:50:59;;;;;;;9.40;7.30;;;;;;;12.50;73.63;100055.75;4972537;28;20233;-81
2023/03/22 08:53:26;;;;;;;8.77;6.30;;;;;;;12.59;73.38;100050.63;4974261;28;20196;-80
2023/03/22 08:55:53;;;;;;;8.53;5.70;;;;;;;12.61;72.79;100059.34;4970030;28;20211;-80
2023/03/22 08:58:19;;;;;;;10.70;6.60;;;;;;;12.64;72.49;100056.44;4968582;28;20213;-81
2023/03/22 09:00:46;;;;;;;11.60;6.87;;;;;;;12.61;72.89;100051.34;4971495;28;20571;-81
2023/03/22 09:03:13;;;;;;;10.03;7.03;;;;;;;12.62;73.43;100045.88;4975638;28;20219;-81
2023/03/22 09:05:39;;;;;;;10.50;6.00;;;;;;;12.65;73.03;100047.44;4967716;28;20211;-81
2023/03/22 09:08:08;;;;;;;8.47;6.27;;;;;;;12.62;73.10;100032.53;4973421;28;20208;-81
2023/03/22 09:10:37;;;;;;;6.23;4.83;;;;;;;12.66;72.91;100030.44;4969312;28;20228;-81
2023/03/22 09:13:04;;;;;;;8.83;6.27;;;;;;;12.72;73.07;100029.97;4972104;28;20200;-81
2023/03/22 09:15:31;;;;;;;7.37;5.87;;;;;;;12.73;73.09;100045.00;4967400;28;20212;-81
2023/03/22 09:17:57;;;;;;;7.60;5.70;;;;;;;12.70;72.79;100035.44;4971388;28;20217;-81
2023/03/22 09:20:24;;;;;;;6.33;4.93;;;;;;;12.75;72.52;100040.38;4970922;28;20232;-81
2023/03/22 09:22:51;;;;;;;9.73;5.50;;;;;;;12.81;71.90;100021.16;4967716;28;20206;-82
2023/03/22 09:25:20;;;;;;;7.50;5.13;;;;;;;12.83;72.07;100024.56;4979447;28;20214;-82
2023/03/22 09:27:46;;;;;;;5.70;3.83;;;;;;;12.89;71.34;100023.22;4973820;28;20652;-81
2023/03/22 09:30:13;;;;;;;6.77;4.57;;;;;;;12.96;70.80;100011.88;4974590;28;20223;-82
2023/03/22 09:32:40;;;;;;;8.17;4.43;;;;;;;13.00;70.44;100007.13;4976646;28;20219;-82
2023/03/22 09:35:07;;;;;;;6.47;4.53;;;;;;;12.99;70.13;100006.28;4974984;28;20219;-81
2023/03/22 09:37:33;;;;;;;6.17;4.00;;;;;;;13.04;70.35;100001.41;4977219;28;20208;-82
2023/03/22 09:40:00;;;;;;;6.87;3.80;;;;;;;13.17;69.42;99985.22;4977057;28;20703;-82
2023/03/22 09:42:37;;;;;;;6.60;3.80;;;;;;;13.17;68.81;99991.41;4977376;28;20200;-81
2023/03/22 09:45:06;;;;;;;6.80;4.37;;;;;;;13.23;68.98;99999.91;4972945;28;20576;-81
2023/03/22 09:47:37;;;;;;;6.07;3.30;;;;;;;13.29;69.10;99985.97;4971680;28;20209;-81
2023/03/22 09:50:08;;;;;;;4.07;3.57;;;;;;;13.36;66.97;99990.69;4972171;28;20289;-81
2023/03/22 09:52:35;;;;;;;6.37;3.43;;;;;;;13.39;66.83;99986.91;4971659;28;20235;-81
2023/03/22 09:55:01;;;;;;;5.60;3.03;;;;;;;13.43;67.00;99996.38;4972040;28;20200;-82
2023/03/22 09:57:33;;;;;;;6.57;4.00;;;;;;;13.40;67.43;99989.47;4970969;28;20213;-82
2023/03/22 10:00:13;;;;;;;3.23;2.63;;;;;;;13.41;66.98;99988.47;4970692;28;20235;-82
2023/03/22 10:03:07;;;;;;;5.17;3.50;;;;;;;13.49;66.97;99980.63;4972751;28;20211;-81
2023/03/22 10:05:39;;;;;;;6.40;2.93;;;;;;;13.52;66.84;99975.03;4979378;28;20203;-82
2023/03/22 10:08:34;;;;;;;4.13;3.13;;;;;;;13.58;66.60;99979.00;4977278;28;20232;-82
2023/03/22 10:11:01;;;;;;;6.30;3.13;;;;;;;13.66;65.17;99968.47;4953763;28;20229;-81
2023/03/22 10:13:35;;;;;;;4.13;3.30;;;;;;;13.69;65.50;99976.22;4975513;28;20216;-82
2023/03/22 10:16:05;;;;;;;3.93;2.60;;;;;;;13.72;65.51;99980.47;4971501;28;20199;-82
2023/03/22 10:18:36;;;;;;;5.60;2.60;;;;;;;13.81;64.92;99985.00;4973709;28;20245;-82
2023/03/22 10:21:05;;;;;;;4.40;2.73;;;;;;;13.78;63.02;99980.81;4970814;28;20769;-81
2023/03/22 10:23:37;;;;;;;4.30;2.67;;;;;;;13.85;62.41;99978.41;4971350;28;20205;-82
2023/03/22 10:26:05;;;;;;;5.13;2.23;;;;;;;13.83;62.67;99975.03;4972347;28;20212;-82
2023/03/22 10:28:38;;;;;;;4.53;2.50;;;;;;;13.81;62.15;99974.31;4975474;28;20201;-82
2023/03/22 10:31:05;;;;;;;5.17;2.43;;;;;;;13.88;62.79;99960.25;4963907;28;20700;-81
2023/03/22 10:33:37;;;;;;;5.43;2.70;;;;;;;13.98;63.16;99972.81;4971281;28;20263;-81
2023/03/22 10:36:07;;;;;;;5.77;2.70;;;;;;;14.10;63.74;99966.41;4967999;28;20207;-82
2023/03/22 10:38:42;;;;;;;4.43;2.93;;;;;;;14.22;63.13;99976.00;4969146;28;20603;-81
2023/03/22 10:41:09;;;;;;;3.23;2.87;;;;;;;14.27;62.85;99968.44;4966785;28;20664;-81
2023/03/22 10:43:40;;;;;;;4.10;2.73;;;;;;;14.32;62.74;99963.50;4968132;28;20204;-81
2023/03/22 10:46:16;;;;;;;4.87;2.57;;;;;;;14.34;62.54;99980.25;4975792;28;20205;-81
2023/03/22 10:48:45;;;;;;;3.93;2.10;;;;;;;14.37;61.80;99965.75;4981691;28;20282;-81
2023/03/22 10:51:20;;;;;;;4.07;2.30;;;;;;;14.43;60.65;99971.44;4972259;28;20225;-81
2023/03/22 10:53:49;;;;;;;2.93;2.00;;;;;;;14.37;61.08;99979.16;4971402;28;20208;-81
2023/03/22 10:56:19;;;;;;;5.53;2.17;;;;;;;14.41;60.93;99978.78;4975772;28;20225;-84
2023/03/22 10:58:49;;;;;;;3.67;2.30;;;;;;;14.44;61.29;99981.19;4967853;28;20216;-83
2023/03/22 11:01:24;;;;;;;4.10;2.00;;;;;;;14.50;61.62;99985.16;4978196;28;20707;-83
2023/03/22 11:03:54;;;;;;;2.73;2.00;;;;;;;14.59;59.38;99966.41;4975139;28;20203;-83
2023/03/22 11:06:25;;;;;;;4.13;2.10;;;;;;;14.56;59.12;99966.66;4970800;28;20211;-83
2023/03/22 11:08:53;;;;;;;3.37;2.10;;;;;;;14.63;58.65;99972.34;4969827;28;20208;-82
2023/03/22 11:11:23;;;;;;;5.93;2.43;;;;;;;14.58;58.62;99966.53;4975195;28;20251;-83
2023/03/22 11:13:59;;;;;;;3.93;1.90;;;;;;;14.59;59.02;99961.03;4969796;28;20757;-82
2023/03/22 11:16:26;;;;;;;3.73;2.17;;;;;;;14.64;59.29;99951.75;4972336;28;20211;-83
2023/03/22 11:18:54;;;;;;;4.13;2.57;;;;;;;14.68;58.91;99945.13;4972790;28;20212;-83
2023/03/22 11:21:25;;;;;;;4.00;2.30;;;;;;;14.73;58.77;99945.53;4969396;28;20698;-83
2023/03/22 11:23:58;;;;;;;4.63;1.80;;;;;;;14.80;57.30;99943.97;4974634;28;20201;-83
2023/03/22 11:26:31;;;;;;;5.50;2.30;;;;;;;14.79;57.67;99939.59;4974687;28;20200;-83
2023/03/22 11:29:06;;;;;;;4.00;2.07;;;;;;;14.84;57.80;99942.72;4968107;28;20239;-83
2023/03/22 11:31:53;;;;;;;3.70;2.07;;;;;;;14.88;58.53;99938.75;4969496;28;20289;-83